createdAt,value
2018-07-10T00:00:22.436Z,0.90
2018-07-10T00:03:21.672Z,1.00
2018-07-10T00:07:58.132Z,1.23
2018-07-10T00:10:36.190Z,1.23
2018-07-10T00:13:03.908Z,1.43
2018-07-10T00:15:31.512Z,1.37
2018-07-10T00:17:58.866Z,0.90
2018-07-10T00:20:26.442Z,1.23
2018-07-10T00:22:54.025Z,0.90
2018-07-10T00:25:21.469Z,1.10
2018-07-10T00:27:48.907Z,1.00
2018-07-10T00:30:16.255Z,1.10
2018-07-10T00:32:44.067Z,1.33
2018-07-10T00:35:11.461Z,1.30
2018-07-10T00:37:38.878Z,1.17
2018-07-10T00:40:06.408Z,1.50
2018-07-10T00:42:34.005Z,0.97
2018-07-10T00:45:01.265Z,1.03
2018-07-10T00:47:28.753Z,1.07
2018-07-10T00:49:56.008Z,1.63
2018-07-10T00:52:26.493Z,1.40
2018-07-10T00:54:54.072Z,1.53
2018-07-10T00:57:21.423Z,1.63
2018-07-10T00:59:49.032Z,1.10
2018-07-10T01:02:16.318Z,1.63
2018-07-10T01:04:43.649Z,1.40
2018-07-10T01:07:11.451Z,1.13
2018-07-10T01:09:38.761Z,1.40
2018-07-10T01:12:13.366Z,1.50
2018-07-10T01:14:40.692Z,1.40
2018-07-10T01:17:08.019Z,1.53
2018-07-10T01:19:35.289Z,1.70
2018-07-10T01:22:02.575Z,1.67
2018-07-10T01:24:30.155Z,1.60
2018-07-10T01:26:57.484Z,1.53
2018-07-10T01:29:30.178Z,1.00
2018-07-10T01:31:57.505Z,1.20
2018-07-10T01:34:24.819Z,1.00
2018-07-10T01:36:52.843Z,1.03
2018-07-10T01:39:20.109Z,1.03
2018-07-10T01:41:47.685Z,1.07
2018-07-10T01:44:15.102Z,1.10
2018-07-10T01:46:42.818Z,1.10
2018-07-10T01:49:10.376Z,1.07
2018-07-10T01:51:37.739Z,0.63
2018-07-10T01:54:05.447Z,0.90
2018-07-10T01:56:33.404Z,1.17
2018-07-10T01:59:01.177Z,0.80
2018-07-10T02:01:28.479Z,0.93
2018-07-10T02:03:56.698Z,1.30
2018-07-10T02:06:24.076Z,1.20
2018-07-10T02:08:51.405Z,0.97
2018-07-10T02:11:19.344Z,1.30
2018-07-10T02:13:46.882Z,1.13
2018-07-10T02:16:14.166Z,1.20
2018-07-10T02:18:41.528Z,1.60
2018-07-10T02:21:09.787Z,1.27
2018-07-10T02:23:38.936Z,1.60
2018-07-10T02:26:07.151Z,1.40
2018-07-10T02:28:34.557Z,1.23
2018-07-10T02:31:02.404Z,1.33
2018-07-10T02:33:29.876Z,1.20
2018-07-10T02:35:58.282Z,1.30
2018-07-10T02:38:26.169Z,1.13
2018-07-10T02:40:53.540Z,1.37
2018-07-10T02:43:21.212Z,1.33
2018-07-10T02:45:48.760Z,0.70
2018-07-10T02:48:16.194Z,1.27
2018-07-10T02:50:44.449Z,1.40
2018-07-10T02:53:11.697Z,1.30
2018-07-10T02:55:39.381Z,1.43
2018-07-10T02:58:06.768Z,1.57
2018-07-10T03:00:34.134Z,1.67
2018-07-10T03:03:01.978Z,1.20
2018-07-10T03:05:30.339Z,2.27
2018-07-10T03:07:57.591Z,1.60
2018-07-10T03:10:24.923Z,1.30
2018-07-10T03:12:52.271Z,1.73
2018-07-10T03:15:19.547Z,1.40
2018-07-10T03:17:46.887Z,1.37
2018-07-10T03:20:14.219Z,1.67
2018-07-10T03:22:42.224Z,1.30
2018-07-10T03:25:10.135Z,0.97
2018-07-10T03:27:37.579Z,0.90
2018-07-10T03:30:04.889Z,1.17
2018-07-10T03:32:32.571Z,1.13
2018-07-10T03:34:59.846Z,1.47
2018-07-10T03:37:27.593Z,1.70
2018-07-10T03:39:54.861Z,1.53
2018-07-10T03:42:22.178Z,1.43
2018-07-10T03:44:49.519Z,1.50
2018-07-10T03:47:18.420Z,1.30
2018-07-10T03:49:47.121Z,1.40
2018-07-10T03:52:16.776Z,1.20
2018-07-10T03:54:44.137Z,1.10
2018-07-10T03:57:12.365Z,1.20
2018-07-10T03:59:41.132Z,1.50
2018-07-10T04:02:08.454Z,0.90
2018-07-10T04:04:35.737Z,1.53
2018-07-10T04:07:03.045Z,1.07
2018-07-10T04:09:30.322Z,1.43
2018-07-10T04:11:57.671Z,1.13
2018-07-10T04:14:25.560Z,1.23
2018-07-10T04:16:52.864Z,1.27
2018-07-10T04:19:20.172Z,1.30
2018-07-10T04:21:55.835Z,1.30
2018-07-10T04:24:23.208Z,1.47
2018-07-10T04:26:53.104Z,1.33
2018-07-10T04:29:23.907Z,1.53
2018-07-10T04:31:56.583Z,1.50
2018-07-10T04:34:24.186Z,1.43
2018-07-10T04:36:51.862Z,1.27
2018-07-10T04:39:19.658Z,1.80
2018-07-10T04:41:51.320Z,1.47
2018-07-10T04:44:18.614Z,1.33
2018-07-10T04:46:49.640Z,1.30
2018-07-10T04:49:33.029Z,1.23
2018-07-10T04:52:01.140Z,1.90
2018-07-10T04:54:40.361Z,1.43
2018-07-10T04:57:11.406Z,1.50
2018-07-10T04:59:38.833Z,1.93
2018-07-10T05:02:06.328Z,2.00
2018-07-10T05:04:33.629Z,1.63
2018-07-10T05:07:02.682Z,1.80
2018-07-10T05:09:29.954Z,1.90
2018-07-10T05:11:57.324Z,1.60
2018-07-10T05:14:24.874Z,1.90
2018-07-10T05:16:52.479Z,2.07
2018-07-10T05:19:19.788Z,1.60
2018-07-10T05:21:47.125Z,2.10
2018-07-10T05:24:17.415Z,2.20
2018-07-10T05:26:45.132Z,1.90
2018-07-10T05:29:12.776Z,2.10
2018-07-10T05:31:40.278Z,2.17
2018-07-10T05:34:08.052Z,2.37
2018-07-10T05:36:35.400Z,1.50
2018-07-10T05:39:06.491Z,2.00
2018-07-10T05:41:38.373Z,1.77
2018-07-10T05:44:05.718Z,1.80
2018-07-10T05:46:33.393Z,1.90
2018-07-10T05:49:02.440Z,1.47
2018-07-10T05:51:30.236Z,1.50
2018-07-10T05:53:57.908Z,2.03
2018-07-10T05:56:25.388Z,1.40
2018-07-10T05:58:53.536Z,1.80
2018-07-10T06:01:21.228Z,1.10
2018-07-10T06:03:49.302Z,1.80
2018-07-10T06:06:17.443Z,1.90
2018-07-10T06:08:44.856Z,1.77
2018-07-10T06:11:12.127Z,1.80
2018-07-10T06:13:39.462Z,1.50
2018-07-10T06:16:06.964Z,2.10
2018-07-10T06:18:34.321Z,1.63
2018-07-10T06:21:01.671Z,1.83
2018-07-10T06:23:32.608Z,1.80
2018-07-10T06:26:00.144Z,2.03
2018-07-10T06:28:27.771Z,2.10
2018-07-10T06:30:55.058Z,1.53
2018-07-10T06:33:24.830Z,2.20
2018-07-10T06:36:28.405Z,2.60
2018-07-10T06:39:00.595Z,2.50
2018-07-10T06:41:27.932Z,1.93
2018-07-10T06:43:56.597Z,2.13
2018-07-10T06:46:43.075Z,2.10
2018-07-10T06:49:18.154Z,2.30
2018-07-10T06:51:45.477Z,2.00
2018-07-10T06:54:12.791Z,2.70
2018-07-10T06:56:40.137Z,2.03
2018-07-10T06:59:07.408Z,2.00
2018-07-10T07:01:34.733Z,2.20
2018-07-10T07:04:05.515Z,2.17
2018-07-10T07:06:32.837Z,2.47
2018-07-10T07:09:00.204Z,2.00
2018-07-10T07:11:27.637Z,2.33
2018-07-10T07:13:55.015Z,2.30
2018-07-10T07:16:22.422Z,2.27
2018-07-10T07:18:49.984Z,2.37
2018-07-10T07:21:17.475Z,2.20
2018-07-10T07:23:45.185Z,2.23
2018-07-10T07:26:13.142Z,2.40
2018-07-10T07:28:40.599Z,2.60
2018-07-10T07:31:08.010Z,2.20
2018-07-10T07:33:35.391Z,2.70
2018-07-10T07:36:02.677Z,3.03
2018-07-10T07:38:29.959Z,2.27
2018-07-10T07:40:57.772Z,2.17
2018-07-10T07:43:25.089Z,2.53
2018-07-10T07:45:52.589Z,2.30
2018-07-10T07:48:19.895Z,2.70
2018-07-10T07:50:47.275Z,2.50
2018-07-10T07:53:14.645Z,2.20
2018-07-10T07:55:42.239Z,2.50
2018-07-10T07:58:09.567Z,2.40
2018-07-10T08:00:36.919Z,2.63
2018-07-10T08:03:04.337Z,2.50
2018-07-10T08:05:31.944Z,2.93
2018-07-10T08:07:59.386Z,2.60
2018-07-10T08:10:26.865Z,3.10
2018-07-10T08:12:54.459Z,2.30
2018-07-10T08:15:22.022Z,3.30
2018-07-10T08:17:49.863Z,2.97
2018-07-10T08:20:17.468Z,2.70
2018-07-10T08:22:45.220Z,3.17
2018-07-10T08:25:12.812Z,2.50
2018-07-10T08:27:40.191Z,3.40
2018-07-10T08:30:08.123Z,3.17
2018-07-10T08:32:35.680Z,3.47
2018-07-10T08:35:03.084Z,3.20
2018-07-10T08:37:30.740Z,3.13
2018-07-10T08:39:58.452Z,3.37
2018-07-10T08:42:25.956Z,3.87
2018-07-10T08:44:53.953Z,3.27
2018-07-10T08:47:21.336Z,2.93
2018-07-10T08:49:49.209Z,2.70
2018-07-10T08:52:16.584Z,4.03
2018-07-10T08:54:44.036Z,3.27
2018-07-10T08:57:11.446Z,3.10
2018-07-10T08:59:39.050Z,3.20
2018-07-10T09:02:06.494Z,3.10
2018-07-10T09:04:33.974Z,3.00
2018-07-10T09:07:01.325Z,3.07
2018-07-10T09:09:28.688Z,3.60
2018-07-10T09:11:56.130Z,3.93
2018-07-10T09:14:24.236Z,2.87
2018-07-10T09:16:51.745Z,3.20
2018-07-10T09:19:21.528Z,4.27
2018-07-10T09:21:56.885Z,3.30
2018-07-10T09:24:24.185Z,3.33
2018-07-10T09:26:52.691Z,4.30
2018-07-10T09:29:21.223Z,4.03
2018-07-10T09:31:48.734Z,3.47
2018-07-10T09:34:16.801Z,3.90
2018-07-10T09:36:44.976Z,3.57
2018-07-10T09:39:12.428Z,4.20
2018-07-10T09:41:39.862Z,3.90
2018-07-10T09:44:07.561Z,4.40
2018-07-10T09:46:34.931Z,4.37
2018-07-10T09:49:02.398Z,5.13
2018-07-10T09:51:31.027Z,4.30
2018-07-10T09:53:58.535Z,4.80
2018-07-10T09:56:26.187Z,5.00
2018-07-10T09:58:55.279Z,4.67
2018-07-10T10:01:31.474Z,5.67
2018-07-10T10:03:58.911Z,5.07
2018-07-10T10:06:26.276Z,4.50
2018-07-10T10:08:53.683Z,4.87
2018-07-10T10:11:21.147Z,5.50
2018-07-10T10:13:48.525Z,4.93
2018-07-10T10:16:15.964Z,5.60
2018-07-10T10:18:44.133Z,5.90
2018-07-10T10:21:12.336Z,5.60
2018-07-10T10:23:40.436Z,6.00
2018-07-10T10:26:07.949Z,5.60
2018-07-10T10:28:36.020Z,5.57
2018-07-10T10:31:03.467Z,5.13
2018-07-10T10:33:30.866Z,5.03
2018-07-10T10:35:58.192Z,5.13
2018-07-10T10:38:25.637Z,5.07
2018-07-10T10:40:53.376Z,4.30
2018-07-10T10:43:20.799Z,4.33
2018-07-10T10:45:48.189Z,4.67
2018-07-10T10:48:16.756Z,5.80
2018-07-10T10:50:46.685Z,4.90
2018-07-10T10:53:14.016Z,4.93
2018-07-10T10:55:41.380Z,5.83
2018-07-10T10:58:08.708Z,5.97
2018-07-10T11:00:36.202Z,5.53
2018-07-10T11:03:03.523Z,6.97
2018-07-10T11:05:31.286Z,6.13
2018-07-10T11:07:59.971Z,6.03
2018-07-10T11:10:27.649Z,7.73
2018-07-10T11:12:55.647Z,7.10
2018-07-10T11:15:22.975Z,7.57
2018-07-10T11:17:51.394Z,6.97
2018-07-10T11:22:27.464Z,7.17
2018-07-10T11:25:04.928Z,7.37
2018-07-10T11:27:37.817Z,7.60
2018-07-10T11:30:05.166Z,7.50
2018-07-10T11:32:32.519Z,8.17
2018-07-10T11:34:59.851Z,7.70
2018-07-10T11:37:27.196Z,8.97
2018-07-10T11:39:54.632Z,7.03
2018-07-10T11:42:23.006Z,7.33
2018-07-10T11:44:50.640Z,8.10
2018-07-10T11:47:18.447Z,8.07
2018-07-10T11:49:45.749Z,7.53
2018-07-10T11:52:13.309Z,7.37
2018-07-10T11:54:41.003Z,7.00
2018-07-10T11:57:08.656Z,7.77
2018-07-10T11:59:36.119Z,7.17
2018-07-10T12:02:03.484Z,8.00
2018-07-10T12:04:35.313Z,7.53
2018-07-10T12:07:02.986Z,7.60
2018-07-10T12:09:30.315Z,8.03
2018-07-10T12:11:57.909Z,6.80
2018-07-10T12:14:25.554Z,7.57
2018-07-10T12:16:53.012Z,6.80
2018-07-10T12:19:20.393Z,6.53
2018-07-10T12:21:47.716Z,6.90
2018-07-10T12:24:15.047Z,7.00
2018-07-10T12:26:42.461Z,7.37
2018-07-10T12:29:10.454Z,7.13
2018-07-10T12:31:37.797Z,6.33
2018-07-10T12:34:05.129Z,7.43
2018-07-10T12:36:32.489Z,7.87
2018-07-10T12:38:59.824Z,7.10
2018-07-10T12:41:27.161Z,7.93
2018-07-10T12:43:54.860Z,8.27
2018-07-10T12:46:22.233Z,7.63
2018-07-10T12:48:49.735Z,7.60
2018-07-10T12:51:17.070Z,7.50
2018-07-10T12:53:44.492Z,7.80
2018-07-10T12:56:12.052Z,6.97
2018-07-10T12:58:41.330Z,8.03
2018-07-10T13:01:08.908Z,8.67
2018-07-10T13:03:36.295Z,8.00
2018-07-10T13:06:03.584Z,9.03
2018-07-10T13:08:30.920Z,8.17
2018-07-10T13:10:58.220Z,8.13
2018-07-10T13:13:25.606Z,8.87
2018-07-10T13:15:53.257Z,7.77
2018-07-10T13:18:21.639Z,9.10
2018-07-10T13:20:49.037Z,8.20
2018-07-10T13:23:16.430Z,7.57
2018-07-10T13:25:44.846Z,7.50
2018-07-10T13:28:12.480Z,7.10
2018-07-10T13:30:40.281Z,7.57
2018-07-10T13:33:07.663Z,6.77
2018-07-10T13:35:35.125Z,7.77
2018-07-10T13:38:02.490Z,8.17
2018-07-10T13:40:30.291Z,8.53
2018-07-10T13:42:59.849Z,8.60
2018-07-10T13:45:28.369Z,8.23
2018-07-10T13:47:55.772Z,7.23
2018-07-10T13:50:24.490Z,7.97
2018-07-10T13:52:52.164Z,11.43
2018-07-10T13:55:19.720Z,8.13
2018-07-10T13:57:52.673Z,9.23
2018-07-10T14:00:20.076Z,9.37
2018-07-10T14:02:47.392Z,7.87
2018-07-10T14:05:14.701Z,9.13
2018-07-10T14:07:42.035Z,9.87
2018-07-10T14:10:09.333Z,8.53
2018-07-10T14:12:36.816Z,8.40
2018-07-10T14:15:04.119Z,8.60
2018-07-10T14:17:31.495Z,7.90
2018-07-10T14:19:58.894Z,8.37
2018-07-10T14:22:26.624Z,7.90
2018-07-10T14:24:53.932Z,7.33
2018-07-10T14:27:21.424Z,8.80
2018-07-10T14:29:48.752Z,8.43
2018-07-10T14:32:16.148Z,7.90
2018-07-10T14:34:43.495Z,7.93
2018-07-10T14:37:10.807Z,8.53
2018-07-10T14:39:38.188Z,9.37
2018-07-10T14:42:05.538Z,8.23
2018-07-10T14:44:34.257Z,8.03
2018-07-10T14:47:03.456Z,8.37
2018-07-10T14:49:30.889Z,9.37
2018-07-10T14:51:58.301Z,8.17
2018-07-10T14:54:26.515Z,9.00
2018-07-10T14:56:53.986Z,8.80
2018-07-10T14:59:21.448Z,9.50
2018-07-10T15:01:48.822Z,8.47
2018-07-10T15:04:16.162Z,8.37
2018-07-10T15:06:43.504Z,9.30
2018-07-10T15:09:10.815Z,8.60
2018-07-10T15:11:38.368Z,8.30
2018-07-10T15:14:09.041Z,8.73
2018-07-10T15:16:41.838Z,8.20
2018-07-10T15:19:09.212Z,10.00
2018-07-10T15:21:36.680Z,8.83
2018-07-10T15:24:05.212Z,9.17
2018-07-10T15:26:33.476Z,8.87
2018-07-10T15:29:00.765Z,9.23
2018-07-10T15:31:28.673Z,8.20
2018-07-10T15:33:56.069Z,8.97
2018-07-10T15:36:23.499Z,9.67
2018-07-10T15:38:51.393Z,8.20
2018-07-10T15:41:19.407Z,8.90
2018-07-10T15:43:47.146Z,9.20
2018-07-10T15:46:15.421Z,7.50
2018-07-10T15:48:42.749Z,8.47
2018-07-10T15:51:10.356Z,9.57
2018-07-10T15:53:37.845Z,8.47
2018-07-10T15:56:05.729Z,8.53
2018-07-10T15:58:33.040Z,8.83
2018-07-10T16:01:00.507Z,11.33
2018-07-10T16:03:27.769Z,8.97
2018-07-10T16:05:55.325Z,8.60
2018-07-10T16:08:22.688Z,14.97
2018-07-10T16:10:53.002Z,8.03
2018-07-10T16:13:20.467Z,8.43
2018-07-10T16:15:48.766Z,7.87
2018-07-10T16:18:16.153Z,8.57
2018-07-10T16:20:44.970Z,8.23
2018-07-10T16:23:13.664Z,8.70
2018-07-10T16:25:42.328Z,8.20
2018-07-10T16:28:10.047Z,7.73
2018-07-10T16:30:37.537Z,7.37
2018-07-10T16:33:04.947Z,6.93
2018-07-10T16:35:32.305Z,8.03
2018-07-10T16:38:00.752Z,8.00
2018-07-10T16:40:28.097Z,8.37
2018-07-10T16:42:56.646Z,8.00
2018-07-10T16:45:25.242Z,7.73
2018-07-10T16:47:59.071Z,8.40
2018-07-10T16:50:27.741Z,7.30
2018-07-10T16:52:57.117Z,7.63
2018-07-10T16:55:24.575Z,8.30
2018-07-10T16:57:52.512Z,7.53
2018-07-10T17:00:20.093Z,7.77
2018-07-10T17:02:47.479Z,7.13
2018-07-10T17:05:14.843Z,7.53
2018-07-10T17:07:42.145Z,8.70
2018-07-10T17:10:09.682Z,8.37
2018-07-10T17:12:36.966Z,7.10
2018-07-10T17:15:04.346Z,7.30
2018-07-10T17:17:31.617Z,7.23
2018-07-10T17:19:58.997Z,7.10
2018-07-10T17:22:26.293Z,6.83
2018-07-10T17:24:54.614Z,6.50
2018-07-10T17:27:24.545Z,6.23
2018-07-10T17:29:52.131Z,6.07
2018-07-10T17:32:19.497Z,6.63
2018-07-10T17:34:47.040Z,7.00
2018-07-10T17:37:14.501Z,6.10
2018-07-10T17:39:41.996Z,7.30
2018-07-10T17:42:09.448Z,6.27
2018-07-10T17:44:36.835Z,6.13
2018-07-10T17:47:04.193Z,5.93
2018-07-10T17:49:31.676Z,6.83
2018-07-10T17:51:58.983Z,5.73
2018-07-10T17:54:26.307Z,7.20
2018-07-10T17:56:53.620Z,6.47
2018-07-10T17:59:21.361Z,6.60
2018-07-10T18:01:48.780Z,6.40
2018-07-10T18:04:16.554Z,6.30
2018-07-10T18:06:44.112Z,7.73
2018-07-10T18:09:11.459Z,6.60
2018-07-10T18:11:38.755Z,6.27
2018-07-10T18:14:06.133Z,6.63
2018-07-10T18:16:33.552Z,9.27
2018-07-10T18:19:01.144Z,5.87
2018-07-10T18:21:28.491Z,6.20
2018-07-10T18:23:55.795Z,6.43
2018-07-10T18:26:23.356Z,6.53
2018-07-10T18:28:50.845Z,6.03
2018-07-10T18:31:18.113Z,6.70
2018-07-10T18:33:45.453Z,6.63
2018-07-10T18:36:12.748Z,6.50
2018-07-10T18:38:40.133Z,7.13
2018-07-10T18:41:07.433Z,7.50
2018-07-10T18:43:34.735Z,7.60
2018-07-10T18:46:02.249Z,7.13
2018-07-10T18:48:29.627Z,6.63
2018-07-10T18:50:57.415Z,5.73
2018-07-10T18:53:24.744Z,8.13
2018-07-10T18:55:52.905Z,7.40
2018-07-10T18:58:25.467Z,6.67
2018-07-10T19:00:54.715Z,7.70
2018-07-10T19:03:22.074Z,7.10
2018-07-10T19:05:50.641Z,7.30
2018-07-10T19:08:18.160Z,7.40
2018-07-10T19:10:46.869Z,7.63
2018-07-10T19:13:14.666Z,7.13
2018-07-10T19:15:42.405Z,6.27
2018-07-10T19:18:10.165Z,6.53
2018-07-10T19:20:37.620Z,7.23
2018-07-10T19:23:08.080Z,6.73
2018-07-10T19:25:35.418Z,6.90
2018-07-10T19:28:04.432Z,6.73
2018-07-10T19:30:35.945Z,7.50
2018-07-10T19:33:03.432Z,6.97
2018-07-10T19:35:30.822Z,7.30
2018-07-10T19:37:58.092Z,6.50
2018-07-10T19:40:25.753Z,6.47
2018-07-10T19:42:53.047Z,6.50
2018-07-10T19:45:20.503Z,7.17
2018-07-10T19:47:47.811Z,7.20
2018-07-10T19:50:18.351Z,6.60
2018-07-10T19:52:46.593Z,6.63
2018-07-10T19:55:13.839Z,6.53
2018-07-10T19:57:46.409Z,7.00
2018-07-10T20:00:13.796Z,6.37
2018-07-10T20:02:41.565Z,7.43
2018-07-10T20:05:11.962Z,7.50
2018-07-10T20:07:41.409Z,6.50
2018-07-10T20:10:09.870Z,5.97
2018-07-10T20:14:45.676Z,6.67
2018-07-10T20:17:16.169Z,7.13
2018-07-10T20:19:45.810Z,7.23
2018-07-10T20:22:17.773Z,7.30
2018-07-10T20:24:49.771Z,7.47
2018-07-10T20:27:18.931Z,7.17
2018-07-10T20:29:49.205Z,7.23
2018-07-10T20:32:19.473Z,7.87
2018-07-10T20:35:17.900Z,6.50
2018-07-10T20:37:47.284Z,7.47
2018-07-10T20:40:15.559Z,7.87
2018-07-10T20:42:43.523Z,7.33
2018-07-10T20:45:10.862Z,8.63
2018-07-10T20:47:43.701Z,7.67
2018-07-10T20:50:11.230Z,8.53
2018-07-10T20:52:43.181Z,8.00
2018-07-10T20:55:10.875Z,7.47
2018-07-10T20:57:42.229Z,8.73
2018-07-10T21:00:11.312Z,8.70
2018-07-10T21:03:44.460Z,7.90
2018-07-10T21:06:19.310Z,8.40
2018-07-10T21:09:14.540Z,8.00
2018-07-10T21:11:48.279Z,7.57
2018-07-10T21:14:19.238Z,8.13
2018-07-10T21:16:54.438Z,8.37
2018-07-10T21:19:27.315Z,7.90
2018-07-10T21:24:02.268Z,8.13
2018-07-10T21:27:32.990Z,7.30
2018-07-10T21:30:03.185Z,8.13
2018-07-10T21:32:35.888Z,8.30
2018-07-10T21:35:06.598Z,8.77
2018-07-10T21:37:36.008Z,8.53
2018-07-10T21:40:19.284Z,8.10
2018-07-10T21:42:59.444Z,9.63
2018-07-10T21:45:31.811Z,9.50
2018-07-10T21:48:04.589Z,8.10
2018-07-10T21:50:38.932Z,7.90
2018-07-10T21:53:06.344Z,7.97
2018-07-10T21:55:33.816Z,7.77
2018-07-10T21:58:01.100Z,8.47
2018-07-10T22:01:31.687Z,8.33
2018-07-10T22:08:50.045Z,6.87
2018-07-10T22:13:07.467Z,8.15
2018-07-10T22:15:36.120Z,38.93
2018-07-10T22:18:04.550Z,9.63
2018-07-10T22:20:33.156Z,7.17
2018-07-10T22:23:01.638Z,8.10
2018-07-10T22:25:30.528Z,7.97
2018-07-10T22:27:59.015Z,7.97
2018-07-10T22:30:35.167Z,8.13
2018-07-10T22:33:03.901Z,8.10
2018-07-10T22:35:32.355Z,8.83
2018-07-10T22:38:00.794Z,9.00
2018-07-10T22:43:41.405Z,8.67
2018-07-10T22:46:09.639Z,8.20
2018-07-10T22:48:37.805Z,8.03
2018-07-10T22:51:06.374Z,8.30
2018-07-10T22:53:34.812Z,9.63
2018-07-10T22:56:03.075Z,9.40
2018-07-10T22:58:31.301Z,9.23
2018-07-10T23:00:59.463Z,9.37
2018-07-10T23:03:27.705Z,9.47
2018-07-10T23:05:55.915Z,8.30
2018-07-10T23:08:25.018Z,8.90
2018-07-10T23:10:53.144Z,9.73
2018-07-10T23:13:21.251Z,9.50
2018-07-10T23:15:49.947Z,9.03
2018-07-10T23:18:18.629Z,9.80
2018-07-10T23:20:46.847Z,10.23
2018-07-10T23:23:15.099Z,9.80
2018-07-10T23:25:43.723Z,10.53
2018-07-10T23:28:11.877Z,9.67
2018-07-10T23:30:40.848Z,10.00
2018-07-10T23:33:11.774Z,9.57
2018-07-10T23:35:41.167Z,9.63
2018-07-10T23:38:13.006Z,10.37
2018-07-10T23:40:42.270Z,10.50
2018-07-10T23:43:10.500Z,10.30
2018-07-10T23:45:38.771Z,10.87
2018-07-10T23:48:07.365Z,11.47
2018-07-10T23:50:37.036Z,10.37
2018-07-10T23:53:45.413Z,11.23
2018-07-10T23:56:13.580Z,11.87
2018-07-10T23:58:41.738Z,10.60
